Mount Pleasant, SC (29464)

8:22 PM EST on March 05, 2015 (GMT -0500)
Point Pleasant | Change Station
CLOSE
Current Station
Personal Weather Station
Location: Mount Pleasant, SC
Elevation: 16 ft
Nearby Weather Stations
Active Advisory: Freeze Watch

Elev 16 ft 32.82 °N, 79.86 °W | Updated 12 minutes ago

Partly Cloudy
Partly Cloudy
64.4 °F
Feels Like 64.4 °F
N
0.0
Wind Variable Wind from NW
Gusts 3.0 mph

Today
High -- | Low -- °F
--% Chance of Precip.
Yesterday
High -- | Low -- °F
Precip. -- in
6:42 AM 6:19 PM
Full, 100% visible
Pressure 30.06 in
Visibility 3.0 miles
Clouds Scattered Clouds 100 ft
Mostly Cloudy 3400 ft
Overcast 4500 ft
Dew Point 64 °F
Humidity 99%
Rainfall in
Snow Depth Not available.
UV 0 out of 12
Pollen 9.40 out of 12
Air Quality Not available.
Flu Activity Not available.
METAR KJZI 060115Z AUTO 28005KT 3SM -RA SCT001 BKN034 OVC045 18/18 A3006 RMK A02 P000

More Conditions Fewer Conditions

Pressure 30.06 in
Visibility 3.0 miles
Clouds Scattered Clouds 100 ft
Mostly Cloudy 3400 ft
Overcast 4500 ft
Dew Point 64 °F
Humidity 99%
Rainfall in
Snow Depth Not available.
UV 0 out of 12
Pollen 9.40 out of 12
Air Quality Not available.
Flu Activity Not available.
METAR KJZI 060115Z AUTO 28005KT 3SM -RA SCT001 BKN034 OVC045 18/18 A3006 RMK A02 P000

More Conditions Fewer Conditions

10-Day Weather Forecast

Almanac

Astronomy

Mar. 05, 2015 Rise Set
Actual Time
Civil Twilight
Nautical Twilight
Astronomical Twilight
Moon
Length of Visible Light
Length of Day
Tomorrow will be .
, % of the Moon is Illuminated

Today's Extremes

State Highs State Lows

Community

WunderPhotos

Upload Photos

1,803,093 photos uploaded!

WunderBlogs® & News

Nearby

Air Quality

  Air Quality AQ Index Pollutant
Not available.

Snow Depth

Station Depth Elevation

Earthquake Activity

City Distance Mag. Time & Date
Minimum magnitude displayed is 2.5.

Coastal Water Temperatures

Place Temperature

Nearby Weather Stations

Freeze Watch
Statement as of 3:56 PM EST on March 05, 2015

... Freeze watch in effect from Friday evening through Saturday
morning...

The National Weather Service in Charleston has issued a freeze
watch... which is in effect from Friday evening through Saturday
morning.

* Locations... most of southeast South Carolina and southeast
Georgia with the exception of coastal Georgia.

* Temperatures... 28 to 32 degrees.

* Timing... dropping below freezing late Friday evening before
rising above freezing between 8 and 9 am Saturday. Freeze
duration of 5 to 8 hours possible.

* Impacts... freezing temperatures could kill sensitive
vegetation and damage unprotected outdoor plumbing.

Precautionary/preparedness actions...

Be prepared for the potential of freezing temperatures which
could harm sensitive outdoor vegetation and damage unprotected
outdoor plumbing.



Jrl